Overview Statistics Trail Chart Weather Telemetry Raw packets
 

This is the latest recevied weather packets stored in our database for station/object JE7UPL-13. If no packets are shown the sender has not sent any weather packets the latest 10 day(s).

<< 3 4 5 6 7 8 9 >>
Time Temp. Humidity Pressure Rain* Wind** Luminosity Snow
1788473705 23.33° C 73% 1006.6 hPa 0 mm - - -
1788472806 23.33° C 76% 1006.7 hPa 0 mm - - -
1788471905 22.22° C 78% 1006.7 hPa 0 mm - - -
1788471006 22.22° C 80% 1006.4 hPa 0 mm - - -
1788470105 21.67° C 85% 1006.1 hPa 0 mm - - -
1788469206 21.11° C 89% 1006 hPa 0 mm - - -
1788468306 20.56° C 92% 1005.9 hPa 0 mm - - -
1788467406 20° C 92% 1005.7 hPa 0 mm - - -
1788466505 20° C 93% 1005.9 hPa 0 mm - - -
1788464705 20° C 93% 1005.4 hPa 0 mm - - -
1788463806 20.56° C 93% 1005.4 hPa 0 mm - - -
1788462905 20.56° C 93% 1005.4 hPa 0 mm - - -
1788462006 20.56° C 93% 1005.1 hPa 0 mm - - -
1788461105 20.56° C 93% 1005.1 hPa 0 mm - - -
1788460206 20° C 93% 1005.1 hPa 0 mm - - -
1788459306 20° C 93% 1005.2 hPa 0 mm - - -
1788458407 20.56° C 93% 1004.8 hPa 0 mm - - -
1788457506 20.56° C 93% 1004.6 hPa 0 mm - - -
1788456606 20.56° C 93% 1004.7 hPa 0 mm - - -
1788455705 20.56° C 93% 1004.7 hPa 0 mm - - -
1788454805 21.11° C 93% 1004.5 hPa 0 mm - - -
1788453905 21.11° C 93% 1004.4 hPa 0 mm - - -
1788453006 21.11° C 93% 1004.5 hPa 0 mm - - -
1788452105 21.11° C 94% 1004.3 hPa 0 mm - - -
1788451206 21.11° C 94% 1004.2 hPa 0 mm - - -

* Rain latest hour (hover to see other rain measurements)
** Current wind speed in m/s (hover to see current wind gust speed)